Time;durP1;ratioP1;P1;durP2;ratioP2;P2;SDS_P1;SDS_P2;PMS_P1;PMS_P2;Temp;Humidity;BMP_temperature;BMP_pressure;BME280_temperature;BME280_humidity;BME280_pressure;Samples;Min_cycle;Max_cycle;Signal;HPM_P1;HPM_P2
2023/03/19 00:01:02;;;;;;;3.10;2.10;;;;;;;;;;5005616;28;20189;-84
2023/03/19 00:03:28;;;;;;;1.90;1.80;;;;;;;;;;5035522;28;20187;-84
2023/03/19 00:05:54;;;;;;;2.63;1.70;;;;;;;;;;5020232;28;20289;-83
2023/03/19 00:08:21;;;;;;;2.63;1.80;;;;;;;;;;5036023;28;20216;-84
2023/03/19 00:10:47;;;;;;;2.00;1.70;;;;;;;;;;5031741;28;20184;-83
2023/03/19 00:13:13;;;;;;;2.10;1.63;;;;;;;;;;5054144;28;20230;-84
2023/03/19 00:15:39;;;;;;;2.57;1.90;;;;;;;;;;5020114;28;20184;-84
2023/03/19 00:18:05;;;;;;;2.57;1.90;;;;;;;;;;5035969;28;20191;-84
2023/03/19 00:20:31;;;;;;;3.23;2.10;;;;;;;;;;5031831;28;20192;-84
2023/03/19 00:22:57;;;;;;;3.23;1.90;;;;;;;;;;5011174;28;20203;-84
2023/03/19 00:25:23;;;;;;;3.40;2.07;;;;;;;;;;5015460;28;20202;-83
2023/03/19 00:27:50;;;;;;;2.10;1.90;;;;;;;;;;5019633;28;20188;-84
2023/03/19 00:30:16;;;;;;;2.93;2.20;;;;;;;;;;5035736;28;20191;-84
2023/03/19 00:32:42;;;;;;;3.60;2.40;;;;;;;;;;5018903;28;20215;-84
2023/03/19 00:35:08;;;;;;;2.77;2.10;;;;;;;;;;5035490;28;20188;-84
2023/03/19 00:37:35;;;;;;;3.97;2.17;;;;;;;;;;5039171;28;20462;-84
2023/03/19 00:40:01;;;;;;;2.23;2.03;;;;;;;;;;5037870;28;20188;-84
2023/03/19 00:42:27;;;;;;;2.73;1.97;;;;;;;;;;5025205;28;20198;-84
2023/03/19 00:44:53;;;;;;;2.40;2.10;;;;;;;;;;5023532;28;20192;-84
2023/03/19 00:47:20;;;;;;;3.63;2.20;;;;;;;;;;5020113;28;20196;-84
2023/03/19 00:49:46;;;;;;;2.30;2.10;;;;;;;;;;5020761;28;20191;-85
2023/03/19 00:52:12;;;;;;;2.10;1.90;;;;;;;;;;5022771;28;20223;-84
2023/03/19 00:54:38;;;;;;;3.77;2.10;;;;;;;;;;5023353;28;20184;-79
2023/03/19 00:57:04;;;;;;;2.47;2.10;;;;;;;;;;5039017;28;20195;-79
2023/03/19 00:59:30;;;;;;;2.87;2.40;;;;;;;;;;5021420;28;20181;-79
2023/03/19 01:01:56;;;;;;;3.33;3.03;;;;;;;;;;5019470;28;20188;-79
2023/03/19 01:04:22;;;;;;;4.10;3.23;;;;;;;;;;5035912;28;20239;-78
2023/03/19 01:06:49;;;;;;;4.10;3.27;;;;;;;;;;5023229;28;20184;-79
2023/03/19 01:09:15;;;;;;;3.70;3.30;;;;;;;;;;5053444;28;20390;-79
2023/03/19 01:11:41;;;;;;;4.07;3.47;;;;;;;;;;5056712;28;20219;-79
2023/03/19 01:14:07;;;;;;;5.57;3.27;;;;;;;;;;5033742;28;20203;-79
2023/03/19 01:16:33;;;;;;;3.63;3.00;;;;;;;;;;5039490;28;20180;-80
2023/03/19 01:19:00;;;;;;;3.70;3.40;;;;;;;;;;5023176;28;20241;-79
2023/03/19 01:21:29;;;;;;;3.43;3.13;;;;;;;;;;5039211;28;20215;-79
2023/03/19 01:23:55;;;;;;;3.83;3.50;;;;;;;;;;5039099;28;20197;-79
2023/03/19 01:26:22;;;;;;;3.60;3.30;;;;;;;;;;5038885;28;20262;-84
2023/03/19 01:28:48;;;;;;;4.33;3.60;;;;;;;;;;5024594;28;20188;-84
2023/03/19 01:31:14;;;;;;;4.00;3.50;;;;;;;;;;5052130;28;20222;-84
2023/03/19 01:33:41;;;;;;;4.60;3.90;;;;;;;;;;5015628;28;20184;-84
2023/03/19 01:36:07;;;;;;;5.53;4.10;;;;;;;;;;5006411;28;20189;-84
2023/03/19 01:38:33;;;;;;;4.63;4.17;;;;;;;;;;5019568;28;20188;-84
2023/03/19 01:41:00;;;;;;;4.90;4.30;;;;;;;;;;5029765;28;20192;-82
2023/03/19 01:43:27;;;;;;;5.60;4.73;;;;;;;;;;5037827;28;20199;-79
2023/03/19 01:45:58;;;;;;;5.17;4.67;;;;;;;;;;5020964;28;20223;-79
2023/03/19 01:48:24;;;;;;;5.13;4.63;;;;;;;;;;5028602;28;20275;-79
2023/03/19 01:50:54;;;;;;;6.07;4.80;;;;;;;;;;5019339;28;20185;-79
2023/03/19 01:53:23;;;;;;;7.17;5.30;;;;;;;;;;5030784;28;20369;-79
2023/03/19 01:55:49;;;;;;;5.90;5.30;;;;;;;;;;5039777;28;20192;-79
2023/03/19 01:58:15;;;;;;;6.30;5.70;;;;;;;;;;5030375;28;20279;-79
2023/03/19 02:00:42;;;;;;;6.87;6.27;;;;;;;;;;5019274;28;20189;-84
2023/03/19 02:03:08;;;;;;;6.67;6.07;;;;;;;;;;5054698;28;20194;-84
2023/03/19 02:05:35;;;;;;;7.07;6.43;;;;;;;;;;5018673;28;20239;-84
2023/03/19 02:08:04;;;;;;;7.07;6.10;;;;;;;;;;5041633;28;20247;-84
2023/03/19 02:10:31;;;;;;;6.33;5.83;;;;;;;;;;5056206;28;20175;-84
2023/03/19 02:12:57;;;;;;;5.97;5.47;;;;;;;;;;5021882;28;20242;-84
2023/03/19 02:15:23;;;;;;;6.20;5.70;;;;;;;;;;5022141;28;20188;-83
2023/03/19 02:17:49;;;;;;;5.63;5.13;;;;;;;;;;5021566;28;20188;-79
2023/03/19 02:20:19;;;;;;;4.37;3.97;;;;;;;;;;5022075;28;20184;-79
2023/03/19 02:22:56;;;;;;;4.70;4.00;;;;;;;;;;5037762;28;20192;-79
2023/03/19 02:25:27;;;;;;;4.50;3.77;;;;;;;;;;5038474;28;20186;-79
2023/03/19 02:27:53;;;;;;;4.53;3.63;;;;;;;;;;5037756;28;20183;-79
2023/03/19 02:30:25;;;;;;;3.90;3.53;;;;;;;;;;5038395;28;20196;-80
2023/03/19 02:32:51;;;;;;;3.80;3.37;;;;;;;;;;5055424;28;20261;-85
2023/03/19 02:35:17;;;;;;;4.70;3.70;;;;;;;;;;5036997;28;20212;-85
2023/03/19 02:37:43;;;;;;;4.43;3.60;;;;;;;;;;5036594;28;20270;-85
2023/03/19 02:40:16;;;;;;;3.97;3.40;;;;;;;;;;5038053;28;20278;-85
2023/03/19 02:42:42;;;;;;;6.20;3.70;;;;;;;;;;5054653;28;20191;-86
2023/03/19 02:45:09;;;;;;;3.83;3.43;;;;;;;;;;5015913;28;20208;-85
2023/03/19 02:47:35;;;;;;;5.60;3.97;;;;;;;;;;5037719;28;20195;-85
2023/03/19 02:50:01;;;;;;;3.70;3.40;;;;;;;;;;5055115;28;20188;-85
2023/03/19 02:52:27;;;;;;;4.40;4.00;;;;;;;;;;5037179;28;20211;-85
2023/03/19 02:54:54;;;;;;;4.67;3.77;;;;;;;;;;5033656;28;20214;-85
2023/03/19 02:57:20;;;;;;;4.93;3.77;;;;;;;;;;5009026;28;20184;-85
2023/03/19 02:59:46;;;;;;;4.67;3.80;;;;;;;;;;5054485;28;20176;-85
2023/03/19 03:02:12;;;;;;;4.20;3.50;;;;;;;;;;5017594;28;20215;-85
2023/03/19 03:04:38;;;;;;;4.80;3.53;;;;;;;;;;5020734;28;20235;-85
2023/03/19 03:07:05;;;;;;;5.13;4.10;;;;;;;;;;5020819;28;20192;-85
2023/03/19 03:09:31;;;;;;;4.33;3.93;;;;;;;;;;5020048;28;20267;-85
2023/03/19 03:11:57;;;;;;;4.40;3.50;;;;;;;;;;5003096;28;20208;-85
2023/03/19 03:14:23;;;;;;;4.43;3.90;;;;;;;;;;5037347;28;20229;-85
2023/03/19 03:16:49;;;;;;;4.80;4.30;;;;;;;;;;5036724;28;20184;-85
2023/03/19 03:19:16;;;;;;;4.27;3.83;;;;;;;;;;5036426;28;20219;-85
2023/03/19 03:21:42;;;;;;;5.47;4.10;;;;;;;;;;5037497;28;20176;-85
2023/03/19 03:24:08;;;;;;;4.83;4.33;;;;;;;;;;5037087;28;20187;-85
2023/03/19 03:26:37;;;;;;;4.77;4.13;;;;;;;;;;5037306;28;20184;-84
2023/03/19 03:29:03;;;;;;;5.73;4.77;;;;;;;;;;5021987;28;20188;-85
2023/03/19 03:31:29;;;;;;;5.63;4.40;;;;;;;;;;5014782;28;20208;-85
2023/03/19 03:33:57;;;;;;;5.37;4.83;;;;;;;;;;5020143;28;20238;-85
2023/03/19 03:36:23;;;;;;;5.47;4.67;;;;;;;;;;5020577;28;20184;-85
2023/03/19 03:38:49;;;;;;;5.50;4.87;;;;;;;;;;5016866;28;20192;-84
2023/03/19 03:41:15;;;;;;;5.63;5.03;;;;;;;;;;5006507;28;20192;-85
2023/03/19 03:43:41;;;;;;;6.07;4.93;;;;;;;;;;5020540;28;20192;-84
2023/03/19 03:46:07;;;;;;;5.90;5.30;;;;;;;;;;5036320;28;20202;-83
2023/03/19 03:48:34;;;;;;;6.70;5.10;;;;;;;;;;5035876;28;20183;-84
2023/03/19 03:51:02;;;;;;;5.60;5.00;;;;;;;;;;5020433;28;20184;-84
2023/03/19 03:53:28;;;;;;;6.33;5.40;;;;;;;;;;5036343;28;20238;-84
2023/03/19 03:55:54;;;;;;;6.77;5.50;;;;;;;;;;5028980;28;20191;-80
2023/03/19 03:58:20;;;;;;;6.60;5.63;;;;;;;;;;5016657;28;20275;-80
2023/03/19 04:00:47;;;;;;;6.17;5.57;;;;;;;;;;5039286;28;20245;-79
2023/03/19 04:03:13;;;;;;;7.83;5.90;;;;;;;;;;5016336;28;20200;-79
2023/03/19 04:05:39;;;;;;;6.37;5.77;;;;;;;;;;5035860;28;20236;-79
2023/03/19 04:08:06;;;;;;;7.13;5.90;;;;;;;;;;5018936;28;20192;-79
2023/03/19 04:10:34;;;;;;;7.80;6.23;;;;;;;;;;5054339;28;20172;-79
2023/03/19 04:13:00;;;;;;;7.20;6.50;;;;;;;;;;5053521;28;20200;-79
2023/03/19 04:15:27;;;;;;;7.27;6.33;;;;;;;;;;5036025;28;20184;-79
2023/03/19 04:17:53;;;;;;;7.20;6.50;;;;;;;;;;5035552;28;20188;-79
2023/03/19 04:20:21;;;;;;;7.43;6.73;;;;;;;;;;5015099;28;20181;-80
2023/03/19 04:22:47;;;;;;;7.07;6.30;;;;;;;;;;5026241;28;20200;-79
2023/03/19 04:25:14;;;;;;;8.00;6.87;;;;;;;;;;5019116;28;20210;-79
2023/03/19 04:27:40;;;;;;;7.33;6.63;;;;;;;;;;5010303;28;20188;-79
2023/03/19 04:30:06;;;;;;;9.23;7.33;;;;;;;;;;5012320;28;20199;-79
2023/03/19 04:32:34;;;;;;;9.07;7.20;;;;;;;;;;5019169;28;20218;-79
2023/03/19 04:35:00;;;;;;;8.67;6.80;;;;;;;;;;5019841;28;20240;-79
2023/03/19 04:37:26;;;;;;;8.73;7.10;;;;;;;;;;5015779;28;20189;-79
2023/03/19 04:39:53;;;;;;;9.67;7.53;;;;;;;;;;5018937;28;20214;-79
2023/03/19 04:42:19;;;;;;;8.87;7.97;;;;;;;;;;5003746;28;20284;-79
2023/03/19 04:44:45;;;;;;;8.87;8.07;;;;;;;;;;5017836;28;20196;-79
2023/03/19 04:47:11;;;;;;;8.83;8.00;;;;;;;;;;5013723;28;20195;-85
2023/03/19 04:49:37;;;;;;;9.57;8.57;;;;;;;;;;5038879;28;20192;-85
2023/03/19 04:52:04;;;;;;;8.73;7.93;;;;;;;;;;5004620;28;20223;-85
2023/03/19 04:54:31;;;;;;;9.37;8.20;;;;;;;;;;5051321;28;20188;-85
2023/03/19 04:56:57;;;;;;;9.20;8.13;;;;;;;;;;5052135;28;20184;-85
2023/03/19 04:59:23;;;;;;;11.03;9.17;;;;;;;;;;5035136;28;20192;-85
2023/03/19 05:01:49;;;;;;;9.43;8.53;;;;;;;;;;5016957;28;20196;-84
2023/03/19 05:04:15;;;;;;;10.33;9.10;;;;;;;;;;4999795;28;20278;-84
2023/03/19 05:06:41;;;;;;;11.30;9.73;;;;;;;;;;5031425;28;20180;-84
2023/03/19 05:09:08;;;;;;;11.03;9.70;;;;;;;;;;5052698;28;20738;-84
2023/03/19 05:11:34;;;;;;;12.93;11.50;;;;;;;;;;5018918;28;20253;-84
2023/03/19 05:14:00;;;;;;;13.77;12.37;;;;;;;;;;5018559;28;20199;-84
2023/03/19 05:16:26;;;;;;;14.27;12.67;;;;;;;;;;5018625;28;20188;-84
2023/03/19 05:18:52;;;;;;;14.07;12.67;;;;;;;;;;5033437;23;20313;-84
2023/03/19 05:21:18;;;;;;;14.27;12.77;;;;;;;;;;5035141;28;20172;-76
2023/03/19 05:23:44;;;;;;;14.80;12.87;;;;;;;;;;5010427;28;20210;-76
2023/03/19 05:26:11;;;;;;;16.27;13.83;;;;;;;;;;5022058;28;20184;-76
2023/03/19 05:28:38;;;;;;;18.00;14.67;;;;;;;;;;5038245;28;20226;-76
2023/03/19 05:31:04;;;;;;;18.37;14.53;;;;;;;;;;5053810;28;20178;-76
2023/03/19 05:33:31;;;;;;;17.10;15.17;;;;;;;;;;5014456;28;20214;-77
2023/03/19 05:35:57;;;;;;;18.00;15.60;;;;;;;;;;5013337;28;20184;-84
2023/03/19 05:38:23;;;;;;;17.57;15.47;;;;;;;;;;5017578;28;20193;-84
2023/03/19 05:40:49;;;;;;;19.77;14.93;;;;;;;;;;5037880;28;20173;-85
2023/03/19 05:43:15;;;;;;;17.67;15.07;;;;;;;;;;5024967;28;20305;-85
2023/03/19 05:45:42;;;;;;;18.07;16.23;;;;;;;;;;5028232;28;20192;-84
2023/03/19 05:48:08;;;;;;;18.20;16.27;;;;;;;;;;5018578;28;20189;-84
2023/03/19 05:50:34;;;;;;;19.67;16.33;;;;;;;;;;5026051;28;20229;-84
2023/03/19 05:53:01;;;;;;;18.83;16.50;;;;;;;;;;5010532;28;20212;-84
2023/03/19 05:55:27;;;;;;;19.37;17.33;;;;;;;;;;5011287;28;20234;-86
2023/03/19 05:57:54;;;;;;;17.90;15.93;;;;;;;;;;5037327;28;20287;-85
2023/03/19 06:00:21;;;;;;;19.20;16.43;;;;;;;;;;5008129;28;20185;-85
2023/03/19 06:02:47;;;;;;;17.50;15.53;;;;;;;;;;5035344;28;20245;-86
2023/03/19 06:05:13;;;;;;;19.30;17.30;;;;;;;;;;5032580;28;20176;-86
2023/03/19 06:07:39;;;;;;;18.93;16.90;;;;;;;;;;5013579;28;20176;-87
2023/03/19 06:10:05;;;;;;;18.50;16.50;;;;;;;;;;5026299;28;20172;-86
2023/03/19 06:12:31;;;;;;;19.03;16.97;;;;;;;;;;5015404;28;20243;-86
2023/03/19 06:14:57;;;;;;;19.20;16.83;;;;;;;;;;5013913;28;20228;-86
2023/03/19 06:17:23;;;;;;;19.87;17.70;;;;;;;;;;5016161;28;20184;-86
2023/03/19 06:19:49;;;;;;;20.17;17.50;;;;;;;;;;5011696;28;20255;-86
2023/03/19 06:22:15;;;;;;;19.77;17.40;;;;;;;;;;5011931;28;20192;-86
2023/03/19 06:24:41;;;;;;;19.70;17.67;;;;;;;;;;5032032;28;20279;-86
2023/03/19 06:27:08;;;;;;;19.67;16.93;;;;;;;;;;5014805;28;20188;-83
2023/03/19 06:29:34;;;;;;;19.30;17.27;;;;;;;;;;5046611;28;20269;-83
2023/03/19 06:32:00;;;;;;;18.53;16.60;;;;;;;;;;5011667;28;20196;-83
2023/03/19 06:34:26;;;;;;;18.73;16.60;;;;;;;;;;5029703;28;20191;-82
2023/03/19 06:36:52;;;;;;;20.07;17.83;;;;;;;;;;5012843;28;20188;-83
2023/03/19 06:39:19;;;;;;;18.73;16.83;;;;;;;;;;5013310;28;20242;-82
2023/03/19 06:41:45;;;;;;;18.50;16.60;;;;;;;;;;5047600;28;20196;-82
2023/03/19 06:44:11;;;;;;;17.37;15.57;;;;;;;;;;5012075;28;20196;-78
2023/03/19 06:46:37;;;;;;;20.00;17.23;;;;;;;;;;5028667;28;20183;-78
2023/03/19 06:49:03;;;;;;;19.00;16.10;;;;;;;;;;5029494;28;20202;-77
2023/03/19 06:51:29;;;;;;;18.30;16.27;;;;;;;;;;5028613;28;20291;-77
2023/03/19 06:53:55;;;;;;;18.17;15.77;;;;;;;;;;5045464;28;20188;-78
2023/03/19 06:56:21;;;;;;;18.23;16.30;;;;;;;;;;5032136;28;20176;-78
2023/03/19 06:58:47;;;;;;;17.90;16.00;;;;;;;;;;5045193;28;20275;-78
2023/03/19 07:01:13;;;;;;;17.67;15.87;;;;;;;;;;5010587;28;20188;-83
2023/03/19 07:03:39;;;;;;;17.30;15.40;;;;;;;;;;5015198;28;20199;-83
2023/03/19 07:06:06;;;;;;;17.30;15.50;;;;;;;;;;5028465;28;20192;-83
2023/03/19 07:08:32;;;;;;;16.37;14.37;;;;;;;;;;5028265;28;20180;-83
2023/03/19 07:11:05;;;;;;;16.87;14.60;;;;;;;;;;5044967;28;20295;-83
2023/03/19 07:13:31;;;;;;;17.30;14.73;;;;;;;;;;5028199;28;20290;-83
2023/03/19 07:15:58;;;;;;;17.93;15.70;;;;;;;;;;5027487;28;20183;-86
2023/03/19 07:18:24;;;;;;;16.67;15.07;;;;;;;;;;5027489;28;20250;-86
2023/03/19 07:20:51;;;;;;;16.33;14.63;;;;;;;;;;5013866;28;20180;-86
2023/03/19 07:23:18;;;;;;;16.40;14.80;;;;;;;;;;5012217;28;20212;-86
2023/03/19 07:25:44;;;;;;;18.60;16.47;;;;;;;;;;5028573;28;20245;-86
2023/03/19 07:28:10;;;;;;;19.20;16.90;;;;;;;;;;5029608;28;20271;-86
2023/03/19 07:30:37;;;;;;;17.67;15.87;;;;;;;;;;5011362;28;20231;-84
2023/03/19 07:33:03;;;;;;;18.00;16.20;;;;;;;;;;5014854;28;20216;-85
2023/03/19 07:35:29;;;;;;;14.70;12.80;;;;;;;;;;5041820;28;20208;-83
2023/03/19 07:37:55;;;;;;;15.27;11.50;;;;;;;;;;5045094;28;20242;-85
2023/03/19 07:40:21;;;;;;;12.73;11.43;;;;;;;;;;5048370;28;20203;-84
2023/03/19 07:42:47;;;;;;;12.63;11.17;;;;;;;;;;5013708;28;20184;-85
2023/03/19 07:45:14;;;;;;;11.60;10.50;;;;;;;;;;5014121;28;20188;-83
2023/03/19 07:47:40;;;;;;;12.40;11.10;;;;;;;;;;5009981;28;20200;-85
2023/03/19 07:50:06;;;;;;;12.57;11.37;;;;;;;;;;5009367;28;20182;-77
2023/03/19 07:52:32;;;;;;;13.90;12.50;;;;;;;;;;5008684;28;20291;-78
2023/03/19 07:54:58;;;;;;;13.47;12.03;;;;;;;;;;5007544;28;20215;-78
2023/03/19 07:57:25;;;;;;;13.30;11.80;;;;;;;;;;5000580;28;20191;-78
2023/03/19 07:59:51;;;;;;;13.57;12.27;;;;;;;;;;5032988;28;20176;-78
2023/03/19 08:02:17;;;;;;;12.87;11.63;;;;;;;;;;5040361;28;20196;-78
2023/03/19 08:04:43;;;;;;;13.13;11.67;;;;;;;;;;5043757;28;20212;-78
2023/03/19 08:07:11;;;;;;;12.13;10.93;;;;;;;;;;5043928;28;20184;-81
2023/03/19 08:09:38;;;;;;;11.17;10.00;;;;;;;;;;5027503;28;20275;-82
2023/03/19 08:12:05;;;;;;;12.30;10.47;;;;;;;;;;5045038;28;20203;-81
2023/03/19 08:14:31;;;;;;;11.40;10.30;;;;;;;;;;5042185;28;20168;-82
2023/03/19 08:16:57;;;;;;;12.00;10.80;;;;;;;;;;5043614;28;20246;-82
2023/03/19 08:19:23;;;;;;;11.40;10.20;;;;;;;;;;5009870;28;20224;-82
2023/03/19 08:21:49;;;;;;;12.83;10.33;;;;;;;;;;5029540;28;20196;-82
2023/03/19 08:24:16;;;;;;;11.10;9.50;;;;;;;;;;5033747;28;20194;-77
2023/03/19 08:26:42;;;;;;;10.60;9.53;;;;;;;;;;5033578;28;20237;-77
2023/03/19 08:29:08;;;;;;;10.53;9.53;;;;;;;;;;5034344;28;20184;-77
2023/03/19 08:31:35;;;;;;;10.43;9.40;;;;;;;;;;5011524;28;20234;-77
2023/03/19 08:34:03;;;;;;;11.07;9.37;;;;;;;;;;5052268;28;20180;-77
2023/03/19 08:36:29;;;;;;;11.20;8.90;;;;;;;;;;5018414;28;20215;-77
2023/03/19 08:38:56;;;;;;;10.13;9.13;;;;;;;;;;5015460;28;20189;-77
2023/03/19 08:41:22;;;;;;;10.07;9.03;;;;;;;;;;5016482;28;20205;-81
2023/03/19 08:43:48;;;;;;;13.40;9.63;;;;;;;;;;5025027;28;20188;-82
2023/03/19 08:46:15;;;;;;;12.17;9.40;;;;;;;;;;5051849;28;20188;-82
2023/03/19 08:48:41;;;;;;;11.60;9.07;;;;;;;;;;5018180;28;20192;-82
2023/03/19 08:51:08;;;;;;;10.77;8.73;;;;;;;;;;5019072;28;20184;-82
2023/03/19 08:53:34;;;;;;;10.13;8.30;;;;;;;;;;5054143;28;20264;-82
2023/03/19 08:56:02;;;;;;;10.10;7.93;;;;;;;;;;5038893;28;20279;-78
2023/03/19 08:58:29;;;;;;;10.03;7.90;;;;;;;;;;5039494;28;20183;-78
2023/03/19 09:01:09;;;;;;;11.67;7.70;;;;;;;;;;5038749;28;20198;-78
2023/03/19 09:03:36;;;;;;;10.93;7.67;;;;;;;;;;5038323;28;20180;-78
2023/03/19 09:06:02;;;;;;;11.63;7.57;;;;;;;;;;5022698;28;20188;-78
2023/03/19 09:08:29;;;;;;;7.70;6.90;;;;;;;;;;5039254;28;20203;-78
2023/03/19 09:10:56;;;;;;;8.40;7.53;;;;;;;;;;5034387;28;20198;-78
2023/03/19 09:13:22;;;;;;;10.57;8.47;;;;;;;;;;5013691;28;20216;-78
2023/03/19 09:15:48;;;;;;;8.73;7.83;;;;;;;;;;5028429;28;20184;-78
2023/03/19 09:18:14;;;;;;;8.90;7.43;;;;;;;;;;5020640;28;20247;-78
2023/03/19 09:20:41;;;;;;;10.87;7.30;;;;;;;;;;5022464;28;20187;-78
2023/03/19 09:23:07;;;;;;;8.33;7.50;;;;;;;;;;5022627;28;20957;-78
2023/03/19 09:25:33;;;;;;;8.90;7.90;;;;;;;;;;5020601;28;20180;-78
2023/03/19 09:27:59;;;;;;;9.83;8.83;;;;;;;;;;5021803;28;20184;-78
2023/03/19 09:30:25;;;;;;;10.90;8.97;;;;;;;;;;5038093;28;20279;-77
2023/03/19 09:32:51;;;;;;;11.10;9.30;;;;;;;;;;5036781;28;20207;-77
2023/03/19 09:35:17;;;;;;;11.17;9.70;;;;;;;;;;5034893;28;20207;-77
2023/03/19 09:37:43;;;;;;;11.90;10.43;;;;;;;;;;5053661;28;20183;-78
2023/03/19 09:40:22;;;;;;;11.97;10.63;;;;;;;;;;5038479;28;20175;-78
2023/03/19 09:42:53;;;;;;;11.60;10.30;;;;;;;;;;5038545;28;20270;-78
2023/03/19 09:45:19;;;;;;;12.70;10.33;;;;;;;;;;5038501;28;20172;-78
2023/03/19 09:47:46;;;;;;;10.80;9.80;;;;;;;;;;5022224;28;20253;-85
2023/03/19 09:50:14;;;;;;;13.17;11.30;;;;;;;;;;5038288;28;20207;-86
2023/03/19 09:52:40;;;;;;;12.37;11.13;;;;;;;;;;5038269;28;20216;-85
2023/03/19 09:55:26;;;;;;;12.53;11.33;;;;;;;;;;5037494;28;20222;-85
2023/03/19 09:57:54;;;;;;;11.90;10.70;;;;;;;;;;5056167;28;20175;-86
2023/03/19 10:00:24;;;;;;;11.07;10.07;;;;;;;;;;5056549;28;20172;-86
2023/03/19 10:02:58;;;;;;;12.40;9.50;;;;;;;;;;5038945;28;20191;-78
2023/03/19 10:05:24;;;;;;;9.60;8.73;;;;;;;;;;5037173;28;20255;-78
2023/03/19 10:08:08;;;;;;;9.27;7.90;;;;;;;;;;5038372;28;20273;-78
2023/03/19 10:10:44;;;;;;;8.07;7.20;;;;;;;;;;5045841;28;20188;-78
2023/03/19 10:13:29;;;;;;;9.07;8.17;;;;;;;;;;5018557;28;20222;-78
2023/03/19 10:15:55;;;;;;;7.97;7.17;;;;;;;;;;5035998;28;20177;-78
2023/03/19 10:18:30;;;;;;;7.40;6.50;;;;;;;;;;5035654;28;20224;-78
2023/03/19 10:21:18;;;;;;;8.53;7.50;;;;;;;;;;5035671;28;20172;-78
2023/03/19 10:23:57;;;;;;;8.43;7.53;;;;;;;;;;5034516;28;20192;-78
2023/03/19 10:26:28;;;;;;;10.73;7.87;;;;;;;;;;5035651;28;20178;-78
2023/03/19 10:29:02;;;;;;;10.77;8.43;;;;;;;;;;5017807;28;20267;-78
2023/03/19 10:31:29;;;;;;;10.60;9.07;;;;;;;;;;5017637;28;20183;-78
2023/03/19 10:34:15;;;;;;;9.30;8.40;;;;;;;;;;5017802;28;20196;-78
2023/03/19 10:36:41;;;;;;;12.00;10.67;;;;;;;;;;5027427;28;20216;-78
2023/03/19 10:39:07;;;;;;;10.17;9.27;;;;;;;;;;5018319;28;20181;-78
2023/03/19 10:41:34;;;;;;;11.80;10.70;;;;;;;;;;5018036;28;20275;-78
2023/03/19 10:44:01;;;;;;;11.37;10.17;;;;;;;;;;5017734;28;20234;-78
2023/03/19 10:46:27;;;;;;;10.97;9.87;;;;;;;;;;5018221;28;20222;-78
2023/03/19 10:48:53;;;;;;;10.77;9.63;;;;;;;;;;5018321;28;20207;-78
2023/03/19 10:51:25;;;;;;;13.07;10.53;;;;;;;;;;5018087;28;20176;-79
2023/03/19 10:53:52;;;;;;;12.43;11.03;;;;;;;;;;5018011;28;20223;-79
2023/03/19 10:56:18;;;;;;;13.70;12.50;;;;;;;;;;5017626;28;20187;-79
2023/03/19 10:59:05;;;;;;;14.60;11.80;;;;;;;;;;5017573;28;20192;-79
2023/03/19 11:01:32;;;;;;;14.27;12.77;;;;;;;;;;5034913;28;20180;-79
2023/03/19 11:03:59;;;;;;;14.03;12.20;;;;;;;;;;5035306;28;20196;-78
2023/03/19 11:06:25;;;;;;;14.43;12.30;;;;;;;;;;5017604;28;20180;-79
2023/03/19 11:08:56;;;;;;;11.57;10.30;;;;;;;;;;5017826;28;20259;-79
2023/03/19 11:11:23;;;;;;;11.20;10.10;;;;;;;;;;5017351;28;20200;-83
2023/03/19 11:13:49;;;;;;;13.30;10.50;;;;;;;;;;5020511;28;20243;-83
2023/03/19 11:16:15;;;;;;;12.07;10.93;;;;;;;;;;5019641;28;20184;-83
2023/03/19 11:18:42;;;;;;;12.43;11.17;;;;;;;;;;5019859;28;20250;-83
2023/03/19 11:21:21;;;;;;;11.63;10.53;;;;;;;;;;5020621;28;20243;-83
2023/03/19 11:23:50;;;;;;;13.83;9.77;;;;;;;;;;5036959;28;20186;-83
2023/03/19 11:26:20;;;;;;;12.07;10.83;;;;;;;;;;5036686;28;20225;-79
2023/03/19 11:28:49;;;;;;;13.53;11.80;;;;;;;;;;5036546;28;20209;-78
2023/03/19 11:31:27;;;;;;;12.40;11.20;;;;;;;;;;5037000;28;20191;-78
2023/03/19 11:33:59;;;;;;;11.33;10.33;;;;;;;;;;5036604;28;20205;-78
2023/03/19 11:36:33;;;;;;;11.37;10.27;;;;;;;;;;5036638;28;20187;-79
2023/03/19 11:39:08;;;;;;;11.93;10.00;;;;;;;;;;5035627;28;20180;-79
2023/03/19 11:41:37;;;;;;;14.10;11.63;;;;;;;;;;5036683;28;20167;-78
2023/03/19 11:44:03;;;;;;;11.23;10.23;;;;;;;;;;5054827;28;20171;-86
2023/03/19 11:46:29;;;;;;;13.63;9.87;;;;;;;;;;5054323;28;20168;-86
2023/03/19 11:49:06;;;;;;;12.67;9.37;;;;;;;;;;5036356;28;20172;-87
2023/03/19 11:51:38;;;;;;;11.60;9.90;;;;;;;;;;5053929;28;20179;-87
2023/03/19 11:54:22;;;;;;;10.93;9.80;;;;;;;;;;5028373;28;20185;-87
2023/03/19 11:56:48;;;;;;;13.15;11.07;;;;;;;;;;5017421;28;20180;-87
2023/03/19 11:59:31;;;;;;;14.15;12.02;;;;;;;;;;5025532;28;20191;-86
2023/03/19 12:02:04;;;;;;;12.15;10.95;;;;;;;;;;5032098;28;20259;-85
2023/03/19 12:04:39;;;;;;;15.70;12.30;;;;;;;;;;5036612;28;20188;-86
2023/03/19 12:07:09;;;;;;;16.48;13.95;;;;;;;;;;5035875;28;20258;-85
2023/03/19 12:09:40;;;;;;;14.77;13.10;;;;;;;;;;5031480;28;20188;-86
2023/03/19 12:12:06;;;;;;;14.90;13.33;;;;;;;;;;5035020;28;20215;-86
2023/03/19 12:14:41;;;;;;;15.87;14.37;;;;;;;;;;5036069;28;20176;-86
2023/03/19 12:20:18;;;;;;;20.50;18.30;;;;;;;;;;5005298;28;20289;-85
2023/03/19 12:22:47;;;;;;;24.83;19.63;;;;;;;;;;5013181;28;20185;-85
2023/03/19 12:25:22;;;;;;;22.83;19.97;;;;;;;;;;5012774;28;20185;-86
2023/03/19 12:27:58;;;;;;;24.53;19.80;;;;;;;;;;5012114;28;20189;-86
2023/03/19 12:30:25;;;;;;;23.70;19.00;;;;;;;;;;5000679;28;20181;-86
2023/03/19 12:32:54;;;;;;;22.90;18.40;;;;;;;;;;5014728;28;20216;-83
2023/03/19 12:35:24;;;;;;;26.07;18.77;;;;;;;;;;4999351;28;20181;-83
2023/03/19 12:37:50;;;;;;;20.53;17.33;;;;;;;;;;5000477;28;20185;-83
2023/03/19 12:40:38;;;;;;;22.10;16.67;;;;;;;;;;5000251;28;20169;-83
2023/03/19 12:43:16;;;;;;;19.53;16.43;;;;;;;;;;5010140;28;20220;-82
2023/03/19 12:45:45;;;;;;;19.90;16.73;;;;;;;;;;5009073;28;20192;-82
2023/03/19 12:48:18;;;;;;;22.73;17.23;;;;;;;;;;4991708;28;20190;-83
2023/03/19 12:50:48;;;;;;;20.07;16.80;;;;;;;;;;5000910;28;20236;-83
2023/03/19 12:53:33;;;;;;;20.30;16.13;;;;;;;;;;5014605;28;20322;-83
2023/03/19 12:56:01;;;;;;;17.80;15.47;;;;;;;;;;4998899;28;20188;-82
2023/03/19 12:58:45;;;;;;;21.87;16.50;;;;;;;;;;4992370;28;20212;-83
2023/03/19 13:01:18;;;;;;;19.87;16.83;;;;;;;;;;4994390;28;20236;-83
2023/03/19 13:04:03;;;;;;;21.93;15.73;;;;;;;;;;5016228;28;20212;-83
2023/03/19 13:06:37;;;;;;;21.73;15.40;;;;;;;;;;5017069;28;20185;-78
2023/03/19 13:09:18;;;;;;;18.07;14.03;;;;;;;;;;5016034;28;20227;-78
2023/03/19 13:11:54;;;;;;;18.60;14.43;;;;;;;;;;5016078;28;20284;-78
2023/03/19 13:14:32;;;;;;;17.07;13.87;;;;;;;;;;5016977;28;20169;-78
2023/03/19 13:17:19;;;;;;;18.63;13.10;;;;;;;;;;5015822;28;20177;-78
2023/03/19 13:19:53;;;;;;;16.07;11.17;;;;;;;;;;5015635;28;20260;-78
2023/03/19 13:22:29;;;;;;;18.50;11.03;;;;;;;;;;5015766;28;20193;-78
2023/03/19 13:24:56;;;;;;;14.03;9.47;;;;;;;;;;5015697;28;20185;-85
2023/03/19 13:27:24;;;;;;;13.83;10.33;;;;;;;;;;5016851;28;20212;-86
2023/03/19 13:30:09;;;;;;;13.77;10.63;;;;;;;;;;5015843;28;20177;-86
2023/03/19 13:32:47;;;;;;;13.40;10.87;;;;;;;;;;5015517;28;20213;-86
2023/03/19 13:35:25;;;;;;;19.37;15.33;;;;;;;;;;5016801;28;20173;-85
2023/03/19 13:38:00;;;;;;;15.77;11.87;;;;;;;;;;5015549;28;20188;-85
2023/03/19 13:40:37;;;;;;;15.23;10.73;;;;;;;;;;5015420;28;20267;-78
2023/03/19 13:43:03;;;;;;;14.37;10.87;;;;;;;;;;5015268;28;20239;-79
2023/03/19 13:45:37;;;;;;;16.10;10.30;;;;;;;;;;5015392;28;20187;-78
2023/03/19 13:48:32;;;;;;;12.53;9.93;;;;;;;;;;5015359;28;20185;-78
2023/03/19 13:51:17;;;;;;;11.67;8.77;;;;;;;;;;4944993;28;20187;-78
2023/03/19 13:54:07;;;;;;;14.03;8.37;;;;;;;;;;5014052;28;20212;-78
2023/03/19 13:56:52;;;;;;;12.40;8.00;;;;;;;;;;5015429;28;20188;-85
2023/03/19 13:59:24;;;;;;;16.10;10.30;;;;;;;;;;5015043;28;20174;-85
2023/03/19 14:01:50;;;;;;;10.53;8.53;;;;;;;;;;5015314;28;20212;-86
2023/03/19 14:04:26;;;;;;;13.07;8.87;;;;;;;;;;5015268;28;20203;-86
2023/03/19 14:07:12;;;;;;;9.90;7.63;;;;;;;;;;5015221;28;20177;-86
2023/03/19 14:09:49;;;;;;;16.23;10.07;;;;;;;;;;4988548;28;20185;-86
2023/03/19 14:12:15;;;;;;;14.07;9.47;;;;;;;;;;5015102;28;20239;-85
2023/03/19 14:14:44;;;;;;;12.73;9.37;;;;;;;;;;5016015;28;20169;-78
2023/03/19 14:17:21;;;;;;;14.43;9.43;;;;;;;;;;5015371;28;20263;-78
2023/03/19 14:19:47;;;;;;;12.50;9.10;;;;;;;;;;4987450;28;20285;-78
2023/03/19 14:22:16;;;;;;;12.20;9.50;;;;;;;;;;5000180;28;20188;-78
2023/03/19 14:24:53;;;;;;;11.40;9.17;;;;;;;;;;4996157;28;20240;-78
2023/03/19 14:27:31;;;;;;;12.50;8.67;;;;;;;;;;4996186;28;20205;-78
2023/03/19 14:29:58;;;;;;;11.77;9.23;;;;;;;;;;4995054;28;20205;-83
2023/03/19 14:32:29;;;;;;;12.60;9.40;;;;;;;;;;4995025;28;20241;-83
2023/03/19 14:34:55;;;;;;;12.83;10.20;;;;;;;;;;4995908;28;20234;-85
2023/03/19 14:37:23;;;;;;;13.73;9.80;;;;;;;;;;4978986;28;20186;-84
2023/03/19 14:39:55;;;;;;;15.37;9.23;;;;;;;;;;4994741;28;20181;-85